Time;durP1;ratioP1;P1;durP2;ratioP2;P2;SDS_P1;SDS_P2;PMS_P1;PMS_P2;Temp;Humidity;BMP_temperature;BMP_pressure;BME280_temperature;BME280_humidity;BME280_pressure;Samples;Min_cycle;Max_cycle;Signal;HPM_P1;HPM_P2
2022/12/27 00:01:47;;;;;;;;;;;10.10;99.90;;;;;;5074003;28;19913;-55
2022/12/27 00:04:13;;;;;;;;;;;10.00;99.90;;;;;;5073603;28;19913;-59
2022/12/27 00:06:38;;;;;;;;;;;10.00;99.90;;;;;;5073780;28;20019;-54
2022/12/27 00:09:04;;;;;;;;;;;9.90;99.90;;;;;;5055452;28;20392;-53
2022/12/27 00:11:30;;;;;;;;;;;9.90;99.90;;;;;;5073767;28;19959;-56
2022/12/27 00:14:02;;;;;;;;;;;9.90;99.90;;;;;;5073616;28;19947;-55
2022/12/27 00:16:28;;;;;;;;;;;9.90;99.90;;;;;;5058607;28;19913;-55
2022/12/27 00:18:54;;;;;;;;;;;9.90;99.90;;;;;;5073070;28;19912;-57
2022/12/27 00:21:20;;;;;;;;;;;12.50;99.90;;;;;;5073602;28;19913;-55
2022/12/27 00:23:47;;;;;;;;;;;10.10;99.90;;;;;;5073373;28;19913;-54
2022/12/27 00:26:14;;;;;;;;;;;10.00;99.90;;;;;;5073659;28;20334;-57
2022/12/27 00:28:40;;;;;;;;;;;10.10;99.90;;;;;;5073232;28;20471;-58
2022/12/27 00:31:06;;;;;;;;;;;10.20;99.90;;;;;;5073494;28;19999;-57
2022/12/27 00:33:32;;;;;;;;;;;10.30;99.90;;;;;;5055478;28;19913;-55
2022/12/27 00:35:58;;;;;;;;;;;10.30;99.90;;;;;;5072963;28;19988;-54
2022/12/27 00:38:24;;;;;;;;;;;10.40;99.90;;;;;;5055022;28;19916;-55
2022/12/27 00:40:50;;;;;;;;;;;10.40;99.90;;;;;;5073047;28;20256;-54
2022/12/27 00:43:15;;;;;;;;;;;10.40;99.90;;;;;;5072869;28;19916;-56
2022/12/27 00:45:42;;;;;;;;;;;10.40;99.90;;;;;;5072646;28;20281;-58
2022/12/27 00:48:07;;;;;;;;;;;10.40;99.90;;;;;;5072586;28;19921;-57
2022/12/27 00:50:33;;;;;;;;;;;10.40;99.90;;;;;;5072541;28;19935;-57
2022/12/27 00:52:58;;;;;;;;;;;10.40;99.90;;;;;;5072876;28;19912;-53
2022/12/27 00:55:24;;;;;;;;;;;10.40;99.90;;;;;;5072651;28;19916;-55
2022/12/27 00:57:49;;;;;;;;;;;10.40;99.90;;;;;;5073114;28;19966;-55
2022/12/27 01:00:15;;;;;;;;;;;10.40;99.90;;;;;;5072623;28;19913;-53
2022/12/27 01:02:41;;;;;;;;;;;10.40;99.90;;;;;;5073548;28;20114;-54
2022/12/27 01:05:06;;;;;;;;;;;10.40;99.90;;;;;;5072445;28;19916;-54
2022/12/27 01:07:32;;;;;;;;;;;10.40;99.90;;;;;;5072260;28;19916;-56
2022/12/27 01:09:58;;;;;;;;;;;10.40;99.90;;;;;;5072313;28;19908;-56
2022/12/27 01:12:23;;;;;;;;;;;10.40;99.90;;;;;;5072680;28;19919;-54
2022/12/27 01:14:49;;;;;;;;;;;10.30;99.90;;;;;;5072364;28;20341;-54
2022/12/27 01:17:14;;;;;;;;;;;10.30;99.90;;;;;;5072440;28;20010;-55
2022/12/27 01:19:40;;;;;;;;;;;10.30;99.90;;;;;;5072275;28;19908;-57
2022/12/27 01:22:06;;;;;;;;;;;10.30;99.90;;;;;;5072094;28;19948;-56
2022/12/27 01:24:32;;;;;;;;;;;10.40;99.90;;;;;;5072312;28;20354;-54
2022/12/27 01:26:58;;;;;;;;;;;10.40;99.90;;;;;;5072068;28;20403;-57
2022/12/27 01:29:24;;;;;;;;;;;10.40;99.90;;;;;;5072252;28;20369;-55
2022/12/27 01:31:49;;;;;;;;;;;10.30;99.90;;;;;;5072241;28;19965;-54
2022/12/27 01:34:15;;;;;;;;;;;10.40;99.90;;;;;;5072118;28;20361;-55
2022/12/27 01:36:41;;;;;;;;;;;10.40;99.90;;;;;;5071864;28;19967;-54
2022/12/27 01:39:09;;;;;;;;;;;10.40;99.90;;;;;;5053732;28;19912;-56
2022/12/27 01:45:11;;;;;;;;;;;10.30;99.90;;;;;;5072526;28;19994;-52
2022/12/27 01:47:35;;;;;;;;;;;10.30;99.90;;;;;;5065767;28;19916;-55
2022/12/27 01:50:07;;;;;;;;;;;10.20;99.90;;;;;;5071593;28;19909;-56
2022/12/27 01:52:41;;;;;;;;;;;10.10;99.90;;;;;;5053543;28;19912;-58
2022/12/27 01:55:11;;;;;;;;;;;10.00;99.90;;;;;;5071228;28;19928;-53
2022/12/27 01:57:37;;;;;;;;;;;10.00;99.90;;;;;;5053646;28;19916;-56
2022/12/27 02:00:03;;;;;;;;;;;9.90;99.90;;;;;;5071579;28;20343;-53
2022/12/27 02:02:29;;;;;;;;;;;9.90;99.90;;;;;;5071994;28;20285;-55
2022/12/27 02:04:54;;;;;;;;;;;9.90;99.90;;;;;;5072134;28;19912;-58
2022/12/27 02:07:23;;;;;;;;;;;9.90;99.90;;;;;;5053473;28;20473;-56
2022/12/27 02:09:51;;;;;;;;;;;9.80;99.90;;;;;;5055904;28;20400;-54
2022/12/27 02:12:18;;;;;;;;;;;9.80;99.90;;;;;;5053789;28;19939;-56
2022/12/27 02:14:45;;;;;;;;;;;9.90;99.90;;;;;;5071924;28;19936;-53
2022/12/27 02:17:25;;;;;;;;;;;9.80;99.90;;;;;;5071357;28;19952;-55
2022/12/27 02:20:02;;;;;;;;;;;9.80;99.90;;;;;;5071334;28;19919;-57
2022/12/27 02:22:31;;;;;;;;;;;9.80;99.90;;;;;;5071473;28;20379;-53
2022/12/27 02:25:13;;;;;;;;;;;9.80;99.90;;;;;;5071272;28;20126;-56
2022/12/27 02:27:52;;;;;;;;;;;9.80;99.90;;;;;;5071773;28;19912;-58
2022/12/27 02:30:18;;;;;;;;;;;9.80;99.90;;;;;;5071827;28;20003;-56
2022/12/27 02:32:49;;;;;;;;;;;9.80;99.90;;;;;;5071858;28;19916;-56
2022/12/27 02:35:17;;;;;;;;;;;9.70;99.90;;;;;;5071709;28;19916;-55
2022/12/27 02:37:46;;;;;;;;;;;9.60;99.90;;;;;;5072010;28;20396;-57
2022/12/27 02:54:32;;;;;;;;;;;9.30;99.90;;;;;;5040738;28;19966;-56
2022/12/27 02:57:20;;;;;;;;;;;9.30;99.90;;;;;;5050678;28;19920;-55
2022/12/27 03:06:39;;;;;;;;;;;9.20;99.90;;;;;;5072176;28;20372;-57
2022/12/27 03:08:44;;;;;;;;;;;9.10;99.90;;;;;;5060092;28;20386;-58
2022/12/27 03:17:05;;;;;;;;;;;9.00;99.90;;;;;;5051526;28;20055;-56
2022/12/27 03:25:30;;;;;;;;;;;9.00;99.90;;;;;;5074449;28;20431;-58
2022/12/27 03:34:30;;;;;;;;;;;8.80;99.90;;;;;;5062062;28;20114;-53
2022/12/27 03:39:36;;;;;;;;;;;8.80;99.90;;;;;;5073879;28;19919;-58
2022/12/27 03:44:48;;;;;;;;;;;8.70;99.90;;;;;;5074278;28;19920;-57
2022/12/27 03:47:32;;;;;;;;;;;8.70;99.90;;;;;;5073865;28;19917;-55
2022/12/27 03:50:16;;;;;;;;;;;8.70;99.90;;;;;;5073849;28;19963;-54
2022/12/27 03:52:45;;;;;;;;;;;8.60;99.90;;;;;;5074202;28;20384;-55
2022/12/27 03:55:10;;;;;;;;;;;8.60;99.90;;;;;;5073657;28;19963;-57
2022/12/27 03:57:36;;;;;;;;;;;8.60;99.90;;;;;;5074182;28;19912;-54
2022/12/27 04:00:03;;;;;;;;;;;8.60;99.90;;;;;;5073683;28;19920;-53
2022/12/27 04:02:29;;;;;;;;;;;8.60;99.90;;;;;;5037823;28;19919;-57
2022/12/27 04:04:54;;;;;;;;;;;8.60;99.90;;;;;;5073674;28;19913;-57
2022/12/27 04:07:20;;;;;;;;;;;8.60;99.90;;;;;;5073721;28;19951;-52
2022/12/27 04:34:40;;;;;;;;;;;8.40;99.90;;;;;;5073602;28;19919;-54
2022/12/27 04:37:06;;;;;;;;;;;8.40;99.90;;;;;;5073156;28;20300;-57
2022/12/27 04:39:31;;;;;;;;;;;8.30;99.90;;;;;;5071912;28;20301;-55
2022/12/27 04:55:56;;;;;;;;;;;8.40;99.90;;;;;;5072867;28;20289;-56
2022/12/27 04:58:21;;;;;;;;;;;8.40;99.90;;;;;;5072731;28;19908;-57
2022/12/27 05:03:32;;;;;;;;;;;8.40;99.90;;;;;;5073418;28;19916;-58
2022/12/27 05:05:58;;;;;;;;;;;8.50;99.90;;;;;;5072967;28;20000;-55
2022/12/27 05:13:58;;;;;;;;;;;8.50;99.90;;;;;;5073065;28;19930;-58
2022/12/27 05:16:31;;;;;;;;;;;8.50;99.90;;;;;;5072942;28;19945;-55
2022/12/27 05:18:56;;;;;;;;;;;5.40;99.90;;;;;;5071259;28;19962;-57
2022/12/27 05:21:22;;;;;;;;;;;8.50;99.90;;;;;;5072747;28;19909;-56
2022/12/27 05:26:32;;;;;;;;;;;8.30;99.90;;;;;;5072866;28;19915;-56
2022/12/27 05:28:58;;;;;;;;;;;8.30;99.90;;;;;;5072360;28;19908;-56
2022/12/27 05:31:24;;;;;;;;;;;8.30;99.90;;;;;;5054662;28;19954;-57
2022/12/27 05:33:50;;;;;;;;;;;8.40;99.90;;;;;;5072511;28;19995;-54
2022/12/27 05:36:16;;;;;;;;;;;8.40;99.90;;;;;;5072895;28;20003;-56
2022/12/27 05:38:41;;;;;;;;;;;8.30;99.90;;;;;;5072188;28;20270;-55
2022/12/27 05:41:07;;;;;;;;;;;8.20;99.90;;;;;;5072487;28;19913;-57
2022/12/27 05:43:32;;;;;;;;;;;8.30;99.90;;;;;;5072318;28;19915;-56
2022/12/27 05:46:24;;;;;;;;;;;8.20;99.90;;;;;;5072255;28;19954;-58
2022/12/27 05:48:50;;;;;;;;;;;8.10;99.90;;;;;;5069773;28;19957;-57
2022/12/27 05:51:17;;;;;;;;;;;8.00;99.90;;;;;;5072152;28;20011;-56
2022/12/27 05:53:43;;;;;;;;;;;8.10;99.90;;;;;;5072235;28;20235;-55
2022/12/27 05:56:12;;;;;;;;;;;8.00;99.90;;;;;;5071981;28;20014;-59
2022/12/27 05:58:37;;;;;;;;;;;8.00;99.90;;;;;;5071982;28;19999;-57
2022/12/27 06:01:06;;;;;;;;;;;7.90;99.90;;;;;;5072707;28;19954;-59
2022/12/27 06:03:32;;;;;;;;;;;7.90;99.90;;;;;;5072144;28;19915;-55
2022/12/27 06:06:01;;;;;;;;;;;7.60;99.90;;;;;;5072097;28;19908;-59
2022/12/27 06:08:27;;;;;;;;;;;7.90;99.90;;;;;;5072056;28;20288;-56
2022/12/27 06:11:10;;;;;;;;;;;7.90;99.90;;;;;;5072044;28;19909;-55
2022/12/27 06:13:36;;;;;;;;;;;7.90;99.90;;;;;;5072078;28;19955;-56
2022/12/27 06:16:02;;;;;;;;;;;8.00;99.90;;;;;;5071901;28;20376;-55
2022/12/27 06:18:29;;;;;;;;;;;7.90;99.90;;;;;;5071806;28;20355;-58
2022/12/27 06:20:59;;;;;;;;;;;8.00;99.90;;;;;;5071950;28;19909;-56
2022/12/27 06:23:25;;;;;;;;;;;8.10;99.90;;;;;;5072000;28;20292;-56
2022/12/27 06:25:50;;;;;;;;;;;8.10;99.90;;;;;;5071798;28;20010;-58
2022/12/27 06:28:16;;;;;;;;;;;8.40;99.90;;;;;;5071589;28;19959;-58
2022/12/27 06:30:41;;;;;;;;;;;8.20;99.90;;;;;;5071722;28;19962;-56
2022/12/27 06:33:07;;;;;;;;;;;8.20;99.90;;;;;;5071848;28;20281;-58
2022/12/27 06:35:32;;;;;;;;;;;8.30;99.90;;;;;;5071743;28;20297;-56
2022/12/27 06:37:58;;;;;;;;;;;8.30;99.90;;;;;;5053833;28;20280;-58
2022/12/27 06:40:23;;;;;;;;;;;8.40;99.90;;;;;;5073680;28;19908;-59
2022/12/27 06:42:49;;;;;;;;;;;8.50;99.90;;;;;;5075767;28;20300;-59
2022/12/27 06:45:14;;;;;;;;;;;8.50;99.90;;;;;;5075563;28;20293;-57
2022/12/27 06:47:40;;;;;;;;;;;8.50;99.90;;;;;;5075798;28;19918;-57
2022/12/27 06:50:06;;;;;;;;;;;8.50;99.90;;;;;;5075503;28;20434;-55
2022/12/27 06:52:31;;;;;;;;;;;8.50;99.90;;;;;;5075675;28;20339;-59
2022/12/27 06:54:57;;;;;;;;;;;8.60;99.90;;;;;;5075385;28;19920;-56
2022/12/27 06:57:22;;;;;;;;;;;8.60;99.90;;;;;;5075414;28;19910;-56
2022/12/27 06:59:48;;;;;;;;;;;8.60;99.90;;;;;;5075620;28;19915;-56
2022/12/27 07:02:13;;;;;;;;;;;8.60;99.90;;;;;;5057471;28;19908;-59
2022/12/27 07:04:39;;;;;;;;;;;8.70;99.90;;;;;;5075296;28;20376;-58
2022/12/27 07:07:04;;;;;;;;;;;8.70;99.90;;;;;;5075116;28;19912;-57
2022/12/27 07:09:30;;;;;;;;;;;8.80;99.90;;;;;;5057171;28;19909;-58
2022/12/27 07:11:56;;;;;;;;;;;8.80;99.90;;;;;;5075137;28;19909;-54
2022/12/27 07:14:21;;;;;;;;;;;9.00;99.90;;;;;;5075511;28;19909;-55
2022/12/27 07:16:48;;;;;;;;;;;9.00;99.90;;;;;;5075082;28;20357;-55
2022/12/27 07:19:13;;;;;;;;;;;9.00;99.90;;;;;;5074840;28;20396;-54
2022/12/27 07:21:39;;;;;;;;;;;9.00;99.90;;;;;;5075031;28;19909;-60
2022/12/27 07:24:05;;;;;;;;;;;9.00;99.90;;;;;;5056901;28;20289;-54
2022/12/27 07:26:30;;;;;;;;;;;9.00;99.90;;;;;;5074784;28;19987;-56
2022/12/27 07:28:57;;;;;;;;;;;8.90;99.90;;;;;;5074591;28;20331;-52
2022/12/27 07:31:23;;;;;;;;;;;9.00;99.90;;;;;;5074828;28;19909;-57
2022/12/27 07:33:49;;;;;;;;;;;9.00;99.90;;;;;;5074744;28;19995;-57
2022/12/27 07:36:20;;;;;;;;;;;9.00;99.90;;;;;;5056801;28;19908;-57
2022/12/27 07:38:46;;;;;;;;;;;9.00;99.90;;;;;;5074496;28;19917;-57
2022/12/27 07:41:12;;;;;;;;;;;9.00;99.90;;;;;;5074568;28;19913;-58
2022/12/27 07:43:38;;;;;;;;;;;9.00;99.90;;;;;;5074533;28;19966;-53
2022/12/27 07:46:05;;;;;;;;;;;9.00;99.90;;;;;;5074540;28;19940;-55
2022/12/27 07:48:31;;;;;;;;;;;9.20;99.90;;;;;;5074411;28;20288;-59
2022/12/27 07:50:56;;;;;;;;;;;9.30;99.90;;;;;;5073550;28;19913;-60
2022/12/27 07:53:22;;;;;;;;;;;9.30;99.90;;;;;;5073924;28;19908;-56
2022/12/27 07:55:47;;;;;;;;;;;9.40;99.90;;;;;;5074054;28;19920;-57
2022/12/27 07:58:13;;;;;;;;;;;9.50;99.90;;;;;;5074065;28;20285;-58
2022/12/27 08:00:39;;;;;;;;;;;9.50;99.90;;;;;;5074346;28;19920;-56
2022/12/27 08:03:04;;;;;;;;;;;9.50;99.90;;;;;;5074355;28;19916;-55
2022/12/27 08:05:30;;;;;;;;;;;9.50;99.90;;;;;;5074242;28;19908;-53
2022/12/27 08:08:00;;;;;;;;;;;9.60;99.90;;;;;;5074073;28;20460;-54
2022/12/27 08:10:25;;;;;;;;;;;9.70;99.90;;;;;;5073860;28;19909;-57
2022/12/27 08:12:51;;;;;;;;;;;9.70;99.90;;;;;;5073972;28;20285;-52
2022/12/27 08:15:16;;;;;;;;;;;9.80;99.90;;;;;;5074018;28;19909;-56
2022/12/27 08:17:42;;;;;;;;;;;9.80;99.90;;;;;;5074111;28;20027;-53
2022/12/27 08:20:12;;;;;;;;;;;9.80;99.90;;;;;;5073691;28;20390;-56
2022/12/27 08:22:37;;;;;;;;;;;9.80;99.90;;;;;;5055822;28;19916;-54
2022/12/27 08:25:03;;;;;;;;;;;9.80;99.90;;;;;;5055720;28;19914;-55
2022/12/27 08:27:28;;;;;;;;;;;9.80;99.90;;;;;;5073645;28;20005;-54
2022/12/27 08:29:54;;;;;;;;;;;9.90;99.90;;;;;;5073464;28;19959;-54
2022/12/27 08:32:20;;;;;;;;;;;9.90;99.90;;;;;;5073675;28;19935;-55
2022/12/27 08:34:46;;;;;;;;;;;9.80;99.90;;;;;;5073385;28;19909;-57
2022/12/27 08:37:11;;;;;;;;;;;9.80;99.90;;;;;;5073564;28;19912;-53
2022/12/27 08:39:37;;;;;;;;;;;9.80;99.90;;;;;;5073272;28;19912;-57
2022/12/27 08:42:02;;;;;;;;;;;9.80;99.90;;;;;;5073400;28;19917;-57
2022/12/27 08:44:28;;;;;;;;;;;9.90;99.90;;;;;;5073372;28;19948;-55
2022/12/27 08:46:54;;;;;;;;;;;9.90;99.90;;;;;;5073139;28;19955;-54
2022/12/27 08:49:19;;;;;;;;;;;10.00;99.90;;;;;;5073282;28;19915;-52
2022/12/27 08:51:45;;;;;;;;;;;10.00;99.90;;;;;;5073351;28;19961;-55
2022/12/27 08:54:10;;;;;;;;;;;10.00;99.90;;;;;;5072885;28;20003;-54
2022/12/27 08:56:36;;;;;;;;;;;10.00;99.90;;;;;;5073283;28;20285;-57
2022/12/27 08:59:02;;;;;;;;;;;10.00;99.90;;;;;;5054914;28;19915;-55
2022/12/27 09:01:27;;;;;;;;;;;10.10;99.90;;;;;;5073610;28;19912;-57
2022/12/27 09:03:53;;;;;;;;;;;10.10;99.90;;;;;;5072522;28;19908;-57
2022/12/27 09:06:19;;;;;;;;;;;10.10;99.90;;;;;;5055022;28;19915;-58
2022/12/27 09:08:46;;;;;;;;;;;10.10;99.90;;;;;;5072624;28;19951;-58
2022/12/27 09:11:25;;;;;;;;;;;10.20;99.90;;;;;;5072961;28;19917;-57
2022/12/27 09:13:51;;;;;;;;;;;10.20;99.90;;;;;;5072909;28;19909;-52
2022/12/27 09:16:21;;;;;;;;;;;10.20;99.90;;;;;;5072901;28;19931;-55
2022/12/27 09:18:48;;;;;;;;;;;10.10;99.90;;;;;;5072558;28;19999;-58
2022/12/27 09:21:15;;;;;;;;;;;10.00;99.90;;;;;;5072617;28;19908;-54
2022/12/27 09:23:41;;;;;;;;;;;10.00;99.90;;;;;;5054751;28;19908;-54
2022/12/27 09:26:08;;;;;;;;;;;10.10;99.90;;;;;;5072546;28;20041;-55
2022/12/27 09:28:34;;;;;;;;;;;10.10;99.90;;;;;;5072309;28;19919;-53
2022/12/27 09:30:59;;;;;;;;;;;10.00;99.90;;;;;;5072575;28;19999;-54
2022/12/27 09:33:26;;;;;;;;;;;9.80;99.90;;;;;;5054633;28;19909;-54
2022/12/27 09:35:51;;;;;;;;;;;9.90;99.90;;;;;;5072257;28;19948;-56
2022/12/27 09:38:17;;;;;;;;;;;10.00;99.90;;;;;;5054227;28;20329;-52
2022/12/27 09:40:53;;;;;;;;;;;9.90;99.90;;;;;;5072458;28;19977;-54
2022/12/27 09:43:22;;;;;;;;;;;9.90;99.90;;;;;;5072333;28;19908;-57
2022/12/27 09:45:50;;;;;;;;;;;10.10;99.90;;;;;;5072333;28;19909;-51
2022/12/27 09:48:33;;;;;;;;;;;10.00;99.90;;;;;;5072002;28;20015;-55
2022/12/27 09:51:11;;;;;;;;;;;9.90;99.90;;;;;;5072276;28;20311;-52
2022/12/27 09:53:40;;;;;;;;;;;10.00;99.90;;;;;;5072172;28;20011;-52
2022/12/27 09:56:09;;;;;;;;;;;9.90;99.90;;;;;;5072083;28;20373;-56
2022/12/27 09:58:40;;;;;;;;;;;10.00;99.90;;;;;;5053938;28;19915;-55
2022/12/27 10:01:13;;;;;;;;;;;10.10;99.90;;;;;;5054188;28;19948;-53
2022/12/27 10:03:39;;;;;;;;;;;10.10;99.90;;;;;;5072320;28;19913;-57
2022/12/27 10:06:23;;;;;;;;;;;10.20;99.90;;;;;;5071988;28;20512;-57
2022/12/27 10:09:04;;;;;;;;;;;10.30;99.90;;;;;;5053809;28;20377;-52
2022/12/27 10:11:36;;;;;;;;;;;10.30;99.90;;;;;;5071870;28;19909;-55
2022/12/27 10:14:14;;;;;;;;;;;10.30;99.90;;;;;;5071359;28;19909;-55
2022/12/27 10:17:00;;;;;;;;;;;10.20;99.90;;;;;;5071865;28;20338;-56
2022/12/27 10:19:40;;;;;;;;;;;10.30;99.90;;;;;;5071305;28;20194;-53
2022/12/27 10:22:05;;;;;;;;;;;10.20;99.90;;;;;;5053977;28;20084;-56
2022/12/27 10:24:44;;;;;;;;;;;10.30;99.90;;;;;;5071943;28;19915;-54
2022/12/27 10:27:14;;;;;;;;;;;10.40;99.90;;;;;;5071808;28;20007;-57
2022/12/27 10:29:40;;;;;;;;;;;10.60;99.90;;;;;;5053739;28;19958;-52
2022/12/27 10:32:07;;;;;;;;;;;10.60;99.90;;;;;;5071733;28;20327;-53
2022/12/27 10:34:33;;;;;;;;;;;10.70;99.90;;;;;;5071791;28;20011;-54
2022/12/27 10:36:59;;;;;;;;;;;10.70;99.90;;;;;;5071963;28;20373;-54
2022/12/27 10:39:26;;;;;;;;;;;10.70;99.90;;;;;;5071662;28;19908;-57
2022/12/27 10:42:10;;;;;;;;;;;10.70;99.90;;;;;;5053815;28;19909;-57
2022/12/27 10:44:35;;;;;;;;;;;10.80;99.90;;;;;;5071696;28;20361;-59
2022/12/27 10:47:01;;;;;;;;;;;10.80;99.90;;;;;;5071571;28;19915;-57
2022/12/27 10:49:29;;;;;;;;;;;10.80;99.80;;;;;;5071591;28;20400;-58
2022/12/27 10:51:56;;;;;;;;;;;10.70;99.90;;;;;;5071726;28;19934;-58
2022/12/27 10:54:26;;;;;;;;;;;10.70;99.90;;;;;;5071592;28;19987;-58
2022/12/27 10:56:52;;;;;;;;;;;10.70;99.90;;;;;;5071702;28;19961;-58
2022/12/27 10:59:25;;;;;;;;;;;10.90;99.90;;;;;;5053363;28;19916;-59
2022/12/27 11:02:03;;;;;;;;;;;10.90;99.90;;;;;;5053517;28;19908;-55
2022/12/27 11:04:29;;;;;;;;;;;10.90;99.50;;;;;;5071633;28;20003;-58
2022/12/27 11:07:01;;;;;;;;;;;10.90;99.90;;;;;;5071409;28;20376;-58
2022/12/27 11:09:29;;;;;;;;;;;10.90;99.50;;;;;;5071281;28;19908;-59
2022/12/27 11:12:14;;;;;;;;;;;11.10;99.40;;;;;;5053431;28;19916;-56
2022/12/27 11:14:40;;;;;;;;;;;;;;;;;;5071402;28;19908;-57
2022/12/27 11:17:06;;;;;;;;;;;;;;;;;;5071716;28;20007;-57
2022/12/27 11:19:32;;;;;;;;;;;;;;;;;;5052458;28;20338;-57
2022/12/27 11:21:58;;;;;;;;;;;;;;;;;;5070857;28;19917;-58
2022/12/27 11:24:24;;;;;;;;;;;;;;;;;;5070962;28;19970;-59
2022/12/27 11:26:50;;;;;;;;;;;;;;;;;;5071749;28;19997;-59
2022/12/27 11:29:16;;;;;;;;;;;;;;;;;;5070219;28;19919;-58
2022/12/27 11:31:46;;;;;;;;;;;;;;;;;;5074366;28;19908;-56
2022/12/27 11:34:12;;;;;;;;;;;;;;;;;;5056359;28;19991;-59
2022/12/27 11:36:39;;;;;;;;;;;;;;;;;;5073816;28;20054;-60
2022/12/27 11:39:06;;;;;;;;;;;;;;;;;;5074196;28;20380;-57
2022/12/27 11:41:32;;;;;;;;;;;;;;;;;;5073767;28;19994;-58
2022/12/27 11:43:58;;;;;;;;;;;;;;;;;;5056283;28;19955;-58
2022/12/27 11:46:24;;;;;;;;;;;;;;;;;;5074580;28;19908;-58
2022/12/27 11:48:50;;;;;;;;;;;;;;;;;;5070524;28;20383;-58
2022/12/27 11:51:16;;;;;;;;;;;;;;;;;;5055318;28;20426;-58
2022/12/27 11:53:42;;;;;;;;;;;;;;;;;;5071609;28;19916;-58
2022/12/27 11:56:08;;;;;;;;;;;;;;;;;;5066426;28;19927;-49
2022/12/27 11:58:34;;;;;;;;;;;;;;;;;;5073492;28;19920;-57
2022/12/27 12:01:01;;;;;;;;;;;;;;;;;;5073284;28;20339;-58
2022/12/27 12:03:27;;;;;;;;;;;;;;;;;;5073063;28;19955;-58
2022/12/27 12:05:53;;;;;;;;;;;;;;;;;;5076398;28;19970;-55
2022/12/27 12:08:19;;;;;;;;;;;;;;;;;;5072293;28;19960;-57
2022/12/27 12:10:45;;;;;;;;;;;;;;;;;;5052362;28;20362;-54
2022/12/27 12:13:11;;;;;;;;;;;;;;;;;;5073840;28;19920;-52
2022/12/27 12:15:37;;;;;;;;;;;;;;;;;;5073317;28;19943;-56
2022/12/27 12:18:03;;;;;;;;;;;;;;;;;;5054944;28;19927;-55
2022/12/27 12:20:28;;;;;;;;;;;;;;;;;;5073381;28;20387;-56
2022/12/27 12:22:55;;;;;;;;;;;;;;;;;;5073652;28;19915;-57
2022/12/27 12:25:20;;;;;;;;;;;;;;;;;;5073509;28;19913;-54
2022/12/27 12:27:46;;;;;;;;;;;;;;;;;;5055102;28;19924;-57
2022/12/27 12:30:12;;;;;;;;;;;;;;;;;;5073132;28;19912;-57
2022/12/27 12:32:38;;;;;;;;;;;;;;;;;;5072608;28;19916;-56
2022/12/27 12:35:04;;;;;;;;;;;;;;;;;;5072928;28;20416;-58
2022/12/27 12:37:30;;;;;;;;;;;;;;;;;;5052871;28;19923;-58
2022/12/27 12:39:56;;;;;;;;;;;;;;;;;;5055122;28;19912;-56
2022/12/27 12:42:22;;;;;;;;;;;;;;;;;;5072266;28;19966;-56
2022/12/27 12:44:48;;;;;;;;;;;;;;;;;;5054864;28;19958;-57
2022/12/27 12:47:14;;;;;;;;;;;;;;;;;;5073205;28;19913;-56
2022/12/27 12:49:40;;;;;;;;;;;;;;;;;;5072713;28;19909;-55
2022/12/27 12:52:06;;;;;;;;;;;;;;;;;;5072428;28;20002;-59
2022/12/27 12:54:32;;;;;;;;;;;;;;;;;;5073018;28;19916;-52
2022/12/27 12:56:58;;;;;;;;;;;;;;;;;;5072711;28;19970;-56
2022/12/27 12:59:24;;;;;;;;;;;;;;;;;;5072968;28;19946;-56
2022/12/27 13:01:51;;;;;;;;;;;;;;;;;;5071278;28;19908;-57
2022/12/27 13:04:17;;;;;;;;;;;;;;;;;;5072509;28;19913;-58
2022/12/27 13:06:43;;;;;;;;;;;;;;;;;;5072628;28;19916;-58
2022/12/27 13:09:09;;;;;;;;;;;;;;;;;;5072709;28;19923;-57
2022/12/27 13:11:35;;;;;;;;;;;;;;;;;;5072365;28;19908;-58
2022/12/27 13:14:01;;;;;;;;;;;;;;;;;;5072491;28;19919;-57
2022/12/27 13:16:28;;;;;;;;;;;;;;;;;;5072781;28;19994;-57
2022/12/27 13:18:53;;;;;;;;;;;;;;;;;;5071839;28;19912;-53
2022/12/27 13:21:19;;;;;;;;;;;;;;;;;;5072741;28;20297;-52
2022/12/27 13:23:45;;;;;;;;;;;;;;;;;;5072385;28;19908;-57
2022/12/27 13:26:11;;;;;;;;;;;;;;;;;;5072670;28;19912;-57
2022/12/27 13:28:37;;;;;;;;;;;;;;;;;;5054006;28;19924;-55
2022/12/27 13:31:03;;;;;;;;;;;;;;;;;;5072552;28;19946;-51
2022/12/27 13:33:29;;;;;;;;;;;;;;;;;;5072238;28;19952;-57
2022/12/27 13:35:55;;;;;;;;;;;;;;;;;;5054335;28;19920;-56
2022/12/27 13:38:21;;;;;;;;;;;;;;;;;;5071865;28;19912;-51
2022/12/27 13:40:47;;;;;;;;;;;;;;;;;;5072505;28;19913;-53
2022/12/27 13:43:13;;;;;;;;;;;;;;;;;;5071946;28;19908;-54
2022/12/27 13:45:39;;;;;;;;;;;;;;;;;;5072597;28;19917;-53
2022/12/27 13:48:05;;;;;;;;;;;;;;;;;;5071451;28;19999;-52
2022/12/27 13:50:31;;;;;;;;;;;;;;;;;;5071952;28;19912;-53
2022/12/27 13:52:57;;;;;;;;;;;;;;;;;;5072082;28;19908;-54
2022/12/27 13:55:23;;;;;;;;;;;;;;;;;;5072077;28;19916;-54
2022/12/27 13:57:50;;;;;;;;;;;;;;;;;;5071920;28;20304;-53
2022/12/27 14:00:16;;;;;;;;;;;;;;;;;;5071442;28;19912;-52
2022/12/27 14:02:42;;;;;;;;;;;;;;;;;;5053525;28;19912;-56
2022/12/27 14:05:08;;;;;;;;;;;;;;;;;;5072092;28;19919;-51
2022/12/27 14:07:34;;;;;;;;;;;;;;;;;;5071856;28;20114;-53
2022/12/27 14:09:59;;;;;;;;;;;;;;;;;;5071666;28;19913;-53
2022/12/27 14:12:25;;;;;;;;;;;;;;;;;;5071955;28;19909;-51
2022/12/27 14:14:51;;;;;;;;;;;;;;;;;;5053360;28;20270;-51
2022/12/27 14:17:17;;;;;;;;;;;;;;;;;;5071828;28;20266;-53
2022/12/27 14:19:43;;;;;;;;;;;;;;;;;;5071487;28;19916;-51
2022/12/27 14:22:09;;;;;;;;;;;;;;;;;;5071649;28;19920;-50
2022/12/27 14:24:35;;;;;;;;;;;;;;;;;;5071685;28;19958;-52
2022/12/27 14:27:01;;;;;;;;;;;;;;;;;;5071870;28;19913;-55
2022/12/27 14:29:27;;;;;;;;;;;;;;;;;;5071414;28;19909;-50
2022/12/27 14:31:53;;;;;;;;;;;;;;;;;;5071466;28;19912;-50
2022/12/27 14:34:19;;;;;;;;;;;;;;;;;;5071443;28;19919;-51
2022/12/27 14:36:45;;;;;;;;;;;;;;;;;;5071695;28;20007;-54
2022/12/27 14:39:11;;;;;;;;;;;;;;;;;;5071283;28;20464;-54
2022/12/27 14:41:37;;;;;;;;;;;;;;;;;;5053329;28;19964;-54
2022/12/27 14:44:02;;;;;;;;;;;;;;;;;;5071287;28;20335;-54
2022/12/27 14:46:28;;;;;;;;;;;;;;;;;;5070722;28;19916;-53
2022/12/27 14:48:54;;;;;;;;;;;;;;;;;;5070850;28;19928;-53
2022/12/27 14:51:20;;;;;;;;;;;;;;;;;;5064514;28;19919;-52
2022/12/27 14:53:46;;;;;;;;;;;;;;;;;;5063295;28;19912;-53
2022/12/27 14:56:12;;;;;;;;;;;;;;;;;;5071193;28;19921;-53
2022/12/27 14:58:47;;;;;;;;;;;10.90;97.70;;;;;;5071338;28;20456;-52
2022/12/27 15:01:13;;;;;;;;;;;;;;;;;;5073287;28;19920;-51
2022/12/27 15:03:39;;;;;;;;;;;;;;;;;;5075068;28;20304;-53
2022/12/27 15:06:05;;;;;;;;;;;;;;;;;;5074295;28;19919;-53
2022/12/27 15:08:31;;;;;;;;;;;;;;;;;;5075016;28;19919;-57
2022/12/27 15:10:57;;;;;;;;;;;;;;;;;;5074571;28;19913;-55
2022/12/27 15:13:23;;;;;;;;;;;;;;;;;;5074161;28;19916;-57
2022/12/27 15:15:49;;;;;;;;;;;;;;;;;;5074683;28;19912;-55
2022/12/27 15:18:15;;;;;;;;;;;;;;;;;;5074689;28;20037;-53
2022/12/27 15:20:41;;;;;;;;;;;;;;;;;;5074642;28;19913;-58
2022/12/27 15:23:07;;;;;;;;;;;;;;;;;;5074198;28;20254;-54
2022/12/27 15:25:33;;;;;;;;;;;;;;;;;;5074377;28;20460;-52
2022/12/27 15:27:59;;;;;;;;;;;;;;;;;;5073903;28;20000;-55
2022/12/27 15:30:26;;;;;;;;;;;;;;;;;;5073962;28;20212;-55
2022/12/27 15:32:52;;;;;;;;;;;;;;;;;;5074290;28;19908;-57
2022/12/27 15:35:18;;;;;;;;;;;;;;;;;;5074530;28;19999;-58
2022/12/27 15:37:45;;;;;;;;;;;;;;;;;;5074615;28;20384;-58
2022/12/27 15:40:11;;;;;;;;;;;;;;;;;;5074748;28;19908;-56
2022/12/27 15:42:36;;;;;;;;;;;;;;;;;;5074462;28;19915;-54
2022/12/27 15:45:02;;;;;;;;;;;;;;;;;;5074675;28;19908;-58
2022/12/27 15:47:28;;;;;;;;;;;;;;;;;;5074559;28;19917;-54
2022/12/27 15:49:54;;;;;;;;;;;;;;;;;;5074425;28;20003;-57
2022/12/27 15:52:20;;;;;;;;;;;;;;;;;;5074516;28;19908;-56
2022/12/27 15:54:46;;;;;;;;;;;;;;;;;;5074534;28;19917;-56
2022/12/27 15:57:12;;;;;;;;;;;;;;;;;;5074243;28;20322;-57
2022/12/27 15:59:38;;;;;;;;;;;;;;;;;;5074237;28;20077;-56
2022/12/27 16:02:04;;;;;;;;;;;;;;;;;;5074551;28;19932;-57
2022/12/27 16:04:30;;;;;;;;;;;;;;;;;;5074266;28;19909;-58
2022/12/27 16:06:56;;;;;;;;;;;;;;;;;;5074298;28;19916;-55
2022/12/27 16:09:22;;;;;;;;;;;;;;;;;;5074119;28;19919;-57
2022/12/27 16:11:48;;;;;;;;;;;;;;;;;;5073514;28;19909;-52
2022/12/27 16:14:13;;;;;;;;;;;;;;;;;;5073397;28;20261;-57
2022/12/27 16:16:39;;;;;;;;;;;;;;;;;;5074125;28;19912;-58
2022/12/27 16:19:05;;;;;;;;;;;;;;;;;;5072836;28;19912;-58
2022/12/27 16:21:31;;;;;;;;;;;;;;;;;;5073344;28;20007;-56
2022/12/27 16:23:57;;;;;;;;;;;;;;;;;;5073517;28;19908;-54
2022/12/27 16:26:23;;;;;;;;;;;;;;;;;;5073308;28;19912;-57
2022/12/27 16:28:49;;;;;;;;;;;;;;;;;;5073585;28;19973;-53
2022/12/27 16:31:15;;;;;;;;;;;;;;;;;;5055539;28;19908;-58
2022/12/27 16:33:41;;;;;;;;;;;;;;;;;;5073546;28;19915;-57
2022/12/27 16:36:07;;;;;;;;;;;;;;;;;;5073589;28;19908;-57
2022/12/27 16:38:33;;;;;;;;;;;;;;;;;;5073825;28;19915;-58
2022/12/27 16:40:59;;;;;;;;;;;;;;;;;;5073283;28;20411;-57
2022/12/27 16:43:25;;;;;;;;;;;;;;;;;;5073405;28;19909;-57
2022/12/27 16:45:51;;;;;;;;;;;;;;;;;;5073462;28;20326;-58
2022/12/27 16:48:16;;;;;;;;;;;;;;;;;;5073244;28;20381;-55
2022/12/27 16:50:55;;;;;;;;;;;10.00;99.90;;;;;;5072432;28;19936;-56